createdAt,value
2023-03-03T00:02:14.837Z,12.03
2023-03-03T00:04:47.501Z,12.40
2023-03-03T00:07:34.985Z,13.47
2023-03-03T00:10:18.827Z,12.93
2023-03-03T00:12:57.485Z,13.47
2023-03-03T00:15:40.186Z,16.50
2023-03-03T00:18:30.385Z,18.60
2023-03-03T00:21:41.321Z,20.60
2023-03-03T00:24:23.460Z,18.33
2023-03-03T00:26:59.093Z,15.17
2023-03-03T00:29:53.987Z,14.00
2023-03-03T00:32:51.823Z,12.53
2023-03-03T00:38:40.974Z,14.40
2023-03-03T00:41:26.972Z,12.53
2023-03-03T00:44:16.919Z,13.27
2023-03-03T00:47:00.300Z,13.10
2023-03-03T00:49:38.175Z,14.07
2023-03-03T00:52:21.467Z,13.40
2023-03-03T00:55:29.681Z,11.80
2023-03-03T00:58:15.105Z,12.73
2023-03-03T01:01:11.109Z,12.30
2023-03-03T01:04:03.765Z,13.87
2023-03-03T01:06:41.992Z,12.17
2023-03-03T01:09:18.382Z,12.77
2023-03-03T01:11:58.944Z,12.70
2023-03-03T01:14:46.083Z,12.63
2023-03-03T01:17:37.258Z,12.80
2023-03-03T01:20:12.725Z,13.07
2023-03-03T01:22:48.390Z,15.53
2023-03-03T01:25:43.767Z,16.13
2023-03-03T01:28:40.651Z,15.10
2023-03-03T01:31:34.054Z,16.20
2023-03-03T01:37:40.759Z,15.43
2023-03-03T01:40:37.347Z,13.00
2023-03-03T01:43:25.674Z,13.07
2023-03-03T01:50:22.284Z,14.33
2023-03-03T01:53:26.059Z,15.83
2023-03-03T01:56:01.939Z,17.47
2023-03-03T01:59:06.336Z,15.93
2023-03-03T02:01:54.466Z,15.63
2023-03-03T02:04:29.433Z,14.53
2023-03-03T02:07:12.770Z,14.33
2023-03-03T02:13:23.531Z,13.00
2023-03-03T02:16:28.999Z,13.10
2023-03-03T02:19:52.033Z,13.57
2023-03-03T02:22:39.249Z,12.67
2023-03-03T02:25:33.838Z,12.47
2023-03-03T02:28:30.192Z,12.80
2023-03-03T02:31:32.830Z,13.17
2023-03-03T02:34:05.475Z,13.80
2023-03-03T02:36:47.096Z,13.37
2023-03-03T02:39:32.814Z,13.40
2023-03-03T02:45:23.072Z,12.43
2023-03-03T02:47:59.050Z,12.83
2023-03-03T02:50:59.760Z,13.13
2023-03-03T02:53:33.499Z,12.20
2023-03-03T02:56:11.303Z,12.63
2023-03-03T02:58:47.249Z,12.67
2023-03-03T03:01:23.321Z,13.50
2023-03-03T03:04:14.660Z,11.73
2023-03-03T03:06:57.665Z,13.00
2023-03-03T03:09:32.852Z,12.63
2023-03-03T03:15:19.892Z,11.50
2023-03-03T03:18:05.052Z,11.17
2023-03-03T03:20:40.856Z,12.50
2023-03-03T03:23:15.937Z,11.50
2023-03-03T03:25:50.575Z,12.23
2023-03-03T03:28:40.633Z,12.43
2023-03-03T03:31:19.453Z,12.20
2023-03-03T03:37:02.363Z,13.07
2023-03-03T03:39:36.269Z,13.67
2023-03-03T03:42:11.697Z,12.57
2023-03-03T03:47:34.371Z,12.10
2023-03-03T03:50:28.119Z,13.47
2023-03-03T03:53:01.866Z,13.43
2023-03-03T03:55:36.849Z,12.40
2023-03-03T04:01:21.978Z,12.57
2023-03-03T04:04:00.126Z,11.63
2023-03-03T04:06:58.774Z,12.80
2023-03-03T04:09:48.467Z,11.83
2023-03-03T04:12:39.726Z,12.57
2023-03-03T04:15:19.196Z,12.50
2023-03-03T04:17:52.161Z,13.47
2023-03-03T04:20:28.556Z,12.33
2023-03-03T04:23:04.862Z,11.50
2023-03-03T04:35:22.236Z,11.87
2023-03-03T04:37:56.952Z,12.03
2023-03-03T04:43:27.139Z,12.17
2023-03-03T04:45:58.430Z,13.03
2023-03-03T04:48:41.738Z,12.53
2023-03-03T04:51:22.903Z,12.80
2023-03-03T04:54:01.904Z,12.20
2023-03-03T04:59:36.306Z,12.63
2023-03-03T05:02:12.693Z,12.27
2023-03-03T05:04:58.593Z,13.07
2023-03-03T05:07:51.198Z,12.27
2023-03-03T05:10:53.959Z,12.10
2023-03-03T05:13:35.856Z,12.23
2023-03-03T05:16:16.190Z,11.77
2023-03-03T05:18:50.689Z,11.77
2023-03-03T05:21:26.103Z,12.70
2023-03-03T05:23:59.031Z,12.60
2023-03-03T05:26:50.402Z,12.33
2023-03-03T05:29:43.288Z,12.70
2023-03-03T05:32:21.728Z,11.27
2023-03-03T05:34:58.966Z,12.53
2023-03-03T05:37:43.331Z,14.90
2023-03-03T05:40:22.556Z,16.30
2023-03-03T05:42:54.721Z,16.30
2023-03-03T05:49:01.244Z,16.90
2023-03-03T05:57:28.543Z,14.00
2023-03-03T06:00:03.929Z,12.97
2023-03-03T06:02:50.704Z,12.97
2023-03-03T06:05:26.978Z,12.67
2023-03-03T06:08:06.693Z,13.57
2023-03-03T06:10:43.019Z,13.57
2023-03-03T06:13:21.919Z,13.20
2023-03-03T06:16:16.076Z,13.10
2023-03-03T06:19:51.929Z,14.43
2023-03-03T06:22:36.398Z,14.27
2023-03-03T06:25:38.413Z,14.07
2023-03-03T06:28:24.775Z,13.97
2023-03-03T06:31:09.219Z,16.83
2023-03-03T06:34:02.019Z,17.10
2023-03-03T06:36:52.308Z,17.77
2023-03-03T06:39:49.580Z,14.77
2023-03-03T06:42:49.994Z,15.00
2023-03-03T06:45:25.868Z,16.73
2023-03-03T06:48:07.892Z,14.33
2023-03-03T06:51:40.569Z,43.07
2023-03-03T06:55:17.466Z,47.27
2023-03-03T06:58:09.098Z,26.70
2023-03-03T07:00:48.428Z,22.23
2023-03-03T07:30:17.806Z,14.80
2023-03-03T07:33:09.522Z,15.47
2023-03-03T07:39:04.566Z,14.13
2023-03-03T07:46:07.996Z,18.77
2023-03-03T07:48:46.803Z,16.97
2023-03-03T07:54:46.172Z,18.47
2023-03-03T07:57:45.028Z,17.23
2023-03-03T08:01:21.272Z,16.70
2023-03-03T08:04:34.816Z,23.90
2023-03-03T08:10:46.809Z,20.70
2023-03-03T08:13:52.777Z,19.63
2023-03-03T08:16:49.100Z,19.77
2023-03-03T08:19:28.473Z,19.83
2023-03-03T08:22:44.578Z,23.90
2023-03-03T08:25:17.119Z,23.10
2023-03-03T08:27:50.553Z,16.80
2023-03-03T08:30:39.731Z,18.00
2023-03-03T08:33:13.010Z,17.77
2023-03-03T08:35:47.412Z,18.00
2023-03-03T08:38:22.601Z,18.37
2023-03-03T08:40:53.977Z,17.73
2023-03-03T08:43:25.327Z,19.30
2023-03-03T08:46:00.517Z,19.27
2023-03-03T08:48:33.053Z,20.13
2023-03-03T08:51:06.186Z,19.97
2023-03-03T08:53:38.837Z,20.50
2023-03-03T08:56:09.313Z,18.20
2023-03-03T08:58:43.378Z,20.40
2023-03-03T09:01:17.607Z,19.70
2023-03-03T09:04:11.312Z,18.63
2023-03-03T09:06:47.970Z,17.60
2023-03-03T09:09:20.216Z,19.90
2023-03-03T09:11:50.828Z,18.37
2023-03-03T09:14:24.357Z,25.07
2023-03-03T09:16:58.388Z,19.97
2023-03-03T09:22:28.109Z,18.13
2023-03-03T09:25:02.130Z,23.97
2023-03-03T09:27:35.846Z,39.40
2023-03-03T09:30:30.685Z,28.67
2023-03-03T09:33:02.827Z,23.37
2023-03-03T09:35:42.317Z,25.73
2023-03-03T09:38:32.162Z,21.23
2023-03-03T09:41:50.065Z,18.33
2023-03-03T09:45:07.811Z,19.87
2023-03-03T09:47:53.802Z,20.07
2023-03-03T09:50:39.028Z,20.60
2023-03-03T09:53:36.400Z,18.57
2023-03-03T09:56:21.924Z,17.50
2023-03-03T09:59:28.074Z,17.23
2023-03-03T10:02:27.280Z,18.37
2023-03-03T10:05:30.252Z,21.20
2023-03-03T10:08:31.705Z,18.73
2023-03-03T10:11:20.323Z,18.63
2023-03-03T10:14:15.289Z,17.30
2023-03-03T10:17:15.856Z,18.10
2023-03-03T10:20:05.466Z,17.93
2023-03-03T10:22:50.933Z,18.20
2023-03-03T10:25:39.248Z,18.07
2023-03-03T10:29:05.659Z,19.43
2023-03-03T10:31:53.107Z,17.10
2023-03-03T10:34:49.742Z,18.63
2023-03-03T10:37:31.883Z,18.47
2023-03-03T10:40:17.591Z,19.67
2023-03-03T10:43:32.195Z,19.83
2023-03-03T10:46:46.415Z,17.73
2023-03-03T10:49:47.765Z,18.53
2023-03-03T10:52:34.644Z,20.03
2023-03-03T10:55:44.367Z,18.07
2023-03-03T10:58:52.018Z,18.80
2023-03-03T11:05:21.990Z,18.63
2023-03-03T11:08:21.404Z,17.70
2023-03-03T12:10:52.265Z,16.10
2023-03-03T12:13:31.057Z,17.60
2023-03-03T12:16:12.100Z,16.90
2023-03-03T12:19:02.939Z,17.33
2023-03-03T12:21:48.689Z,17.63
2023-03-03T12:24:36.937Z,19.70
2023-03-03T12:27:23.052Z,23.58
2023-03-03T12:30:07.629Z,23.15
2023-03-03T12:33:13.511Z,18.70
2023-03-03T12:35:54.013Z,18.58
2023-03-03T12:38:39.056Z,20.73
2023-03-03T12:41:17.058Z,18.35
2023-03-03T12:43:59.394Z,19.80
2023-03-03T12:46:45.172Z,19.95
2023-03-03T12:49:14.168Z,20.25
2023-03-03T12:52:04.828Z,19.80
2023-03-03T12:54:55.370Z,19.53
2023-03-03T12:57:37.359Z,21.00
2023-03-03T13:00:31.940Z,21.10
2023-03-03T13:03:16.142Z,21.15
2023-03-03T13:06:00.176Z,21.08
2023-03-03T13:08:53.607Z,21.57
2023-03-03T13:11:41.401Z,19.02
2023-03-03T13:14:26.243Z,20.33
2023-03-03T13:17:16.648Z,19.73
2023-03-03T13:19:56.157Z,20.63
2023-03-03T13:22:45.185Z,20.50
2023-03-03T13:25:44.378Z,20.42
2023-03-03T13:28:24.527Z,20.50
2023-03-03T13:31:03.792Z,19.50
2023-03-03T13:33:36.990Z,20.55
2023-03-03T13:36:11.529Z,20.60
2023-03-03T13:38:48.472Z,21.08
2023-03-03T13:41:25.753Z,20.85
2023-03-03T13:44:04.950Z,19.67
2023-03-03T13:46:43.422Z,19.75
2023-03-03T13:49:56.430Z,21.48
2023-03-03T13:52:30.357Z,20.30
2023-03-03T13:55:22.544Z,20.67
2023-03-03T13:58:07.514Z,22.92
2023-03-03T14:00:54.621Z,21.40
2023-03-03T14:03:52.695Z,22.17
2023-03-03T14:06:25.163Z,20.98
2023-03-03T14:09:21.162Z,21.90
2023-03-03T14:12:00.821Z,21.13
2023-03-03T14:14:48.165Z,21.25
2023-03-03T14:17:31.044Z,20.45
2023-03-03T14:20:19.172Z,22.08
2023-03-03T14:22:54.750Z,21.13
2023-03-03T14:25:25.161Z,20.15
2023-03-03T14:28:05.810Z,21.40
2023-03-03T14:30:39.612Z,19.90
2023-03-03T14:33:22.022Z,21.13
2023-03-03T14:36:05.905Z,21.02
2023-03-03T14:38:45.869Z,21.20
2023-03-03T14:41:36.677Z,20.17
2023-03-03T14:44:29.444Z,21.58
2023-03-03T14:47:24.058Z,22.90
2023-03-03T15:27:19.379Z,18.77
2023-03-03T15:30:03.675Z,18.57
2023-03-03T15:32:43.220Z,19.27
2023-03-03T15:35:38.302Z,19.57
2023-03-03T15:38:26.058Z,20.07
2023-03-03T15:41:06.521Z,18.67
2023-03-03T15:43:43.117Z,21.30
2023-03-03T15:46:28.690Z,19.63
2023-03-03T15:49:19.519Z,20.17
2023-03-03T15:52:12.520Z,21.30
2023-03-03T15:54:53.503Z,20.07
2023-03-03T15:57:37.851Z,18.33
2023-03-03T16:00:39.092Z,22.00
2023-03-03T16:03:18.441Z,23.67
2023-03-03T16:06:06.733Z,19.63
2023-03-03T16:08:50.989Z,18.80
2023-03-03T16:11:29.770Z,19.30
2023-03-03T16:14:40.399Z,18.80
2023-03-03T16:17:27.934Z,19.20
2023-03-03T18:03:38.531Z,41.67
2023-03-03T18:06:46.111Z,27.73
2023-03-03T18:09:42.746Z,29.60
2023-03-03T18:12:21.600Z,29.03
2023-03-03T18:15:35.274Z,32.87
2023-03-03T18:18:32.548Z,26.47
2023-03-03T18:21:12.183Z,25.47
2023-03-03T18:23:43.499Z,29.47
2023-03-03T18:26:38.878Z,21.73
2023-03-03T18:29:28.420Z,21.93
2023-03-03T18:32:22.062Z,24.23
2023-03-03T18:35:30.062Z,23.60
2023-03-03T18:37:59.422Z,28.27
2023-03-03T18:40:40.157Z,36.87
2023-03-03T18:43:52.643Z,33.80
2023-03-03T18:46:50.499Z,25.73
2023-03-03T18:49:42.011Z,24.90
2023-03-03T18:52:23.254Z,26.63
2023-03-03T18:55:26.998Z,24.33
2023-03-03T18:58:41.982Z,21.97
2023-03-03T19:01:45.462Z,21.83
2023-03-03T19:04:55.637Z,21.43
2023-03-03T19:07:45.962Z,22.47
2023-03-03T19:11:07.028Z,23.23
2023-03-03T19:13:52.798Z,23.70
2023-03-03T19:16:41.014Z,25.63
2023-03-03T19:19:17.106Z,25.23
2023-03-03T19:21:52.760Z,27.50
2023-03-03T19:24:55.727Z,27.33
2023-03-03T19:27:39.045Z,23.57
2023-03-03T19:30:47.685Z,26.53
2023-03-03T19:33:58.434Z,26.17
2023-03-03T19:36:55.289Z,23.13
2023-03-03T19:40:01.191Z,26.50
2023-03-03T19:42:51.506Z,27.20
2023-03-03T19:45:45.384Z,26.00
2023-03-03T19:48:38.650Z,22.43
2023-03-03T19:51:28.055Z,28.27
2023-03-03T19:54:22.704Z,22.53
2023-03-03T19:57:36.832Z,22.67
2023-03-03T20:00:45.230Z,22.23
2023-03-03T20:04:09.368Z,24.43
2023-03-03T20:06:57.888Z,24.57
2023-03-03T20:09:44.653Z,21.23
2023-03-03T20:12:48.373Z,21.93
2023-03-03T20:15:35.074Z,20.23
2023-03-03T20:18:48.222Z,20.33
2023-03-03T20:21:45.393Z,19.20
2023-03-03T20:25:00.737Z,19.50
2023-03-03T20:28:19.260Z,18.53
2023-03-03T20:31:08.556Z,20.77
2023-03-03T20:33:54.963Z,20.90
2023-03-03T20:36:39.512Z,22.53
2023-03-03T20:39:17.586Z,23.23
2023-03-03T20:42:14.653Z,23.87
2023-03-03T20:45:22.388Z,21.50
2023-03-03T20:48:12.133Z,21.30
2023-03-03T20:50:58.691Z,24.67
2023-03-03T20:53:42.329Z,27.83
2023-03-03T20:56:26.057Z,21.83
2023-03-03T20:59:30.167Z,19.07
2023-03-03T21:02:19.806Z,19.27
2023-03-03T21:05:11.171Z,20.20
